createdAt,value
2022-07-27T00:00:47.493Z,16.35
2022-07-27T00:03:14.055Z,16.37
2022-07-27T00:05:40.687Z,16.25
2022-07-27T00:08:07.391Z,16.15
2022-07-27T00:10:35.281Z,16.14
2022-07-27T00:13:01.962Z,16.14
2022-07-27T00:15:28.662Z,16.06
2022-07-27T00:17:56.849Z,16.06
2022-07-27T00:20:27.066Z,16.12
2022-07-27T00:22:55.002Z,16.18
2022-07-27T00:25:22.999Z,16.19
2022-07-27T00:27:49.977Z,16.17
2022-07-27T00:30:17.180Z,16.22
2022-07-27T00:32:43.977Z,16.27
2022-07-27T00:35:11.350Z,16.34
2022-07-27T00:37:38.754Z,16.43
2022-07-27T00:40:06.402Z,16.45
2022-07-27T00:42:34.489Z,16.38
2022-07-27T00:45:02.744Z,16.30
2022-07-27T00:47:29.354Z,16.20
2022-07-27T00:49:57.116Z,16.18
2022-07-27T00:52:24.705Z,16.18
2022-07-27T00:54:52.836Z,16.21
2022-07-27T00:57:19.534Z,16.20
2022-07-27T00:59:46.204Z,16.11
2022-07-27T01:02:19.400Z,16.08
2022-07-27T01:04:47.308Z,15.99
2022-07-27T01:07:15.016Z,15.93
2022-07-27T01:09:57.549Z,15.91
2022-07-27T01:12:32.177Z,15.88
2022-07-27T01:14:59.468Z,15.81
2022-07-27T01:17:30.625Z,15.77
2022-07-27T01:19:58.173Z,15.71
2022-07-27T01:22:25.327Z,15.69
2022-07-27T01:24:51.821Z,15.64
2022-07-27T01:27:18.269Z,15.63
2022-07-27T01:29:44.820Z,15.62
2022-07-27T01:32:11.578Z,15.58
2022-07-27T01:34:38.151Z,15.57
2022-07-27T01:37:05.544Z,15.59
2022-07-27T01:39:33.082Z,15.62
2022-07-27T01:42:00.808Z,15.58
2022-07-27T01:44:28.243Z,15.49
2022-07-27T01:46:54.812Z,15.42
2022-07-27T01:49:21.651Z,15.40
2022-07-27T01:51:48.184Z,15.41
2022-07-27T01:54:15.096Z,15.40
2022-07-27T01:56:42.356Z,15.41
2022-07-27T01:59:09.231Z,15.41
2022-07-27T02:01:43.364Z,15.41
2022-07-27T02:04:09.861Z,15.40
2022-07-27T02:06:36.352Z,15.39
2022-07-27T02:09:03.562Z,15.40
2022-07-27T02:11:48.897Z,15.41
2022-07-27T02:14:16.561Z,15.45
2022-07-27T02:16:43.355Z,15.49
2022-07-27T02:19:11.266Z,15.46
2022-07-27T02:21:38.786Z,15.43
2022-07-27T02:24:05.618Z,15.42
2022-07-27T02:26:32.568Z,15.37
2022-07-27T02:28:59.105Z,15.36
2022-07-27T02:31:25.716Z,15.41
2022-07-27T02:33:54.346Z,15.37
2022-07-27T02:36:20.879Z,15.41
2022-07-27T02:38:47.383Z,15.40
2022-07-27T02:41:13.840Z,15.40
2022-07-27T02:43:40.614Z,15.36
2022-07-27T02:46:07.218Z,15.37
2022-07-27T02:48:34.097Z,15.40
2022-07-27T02:51:01.878Z,15.37
2022-07-27T02:53:29.635Z,15.34
2022-07-27T02:55:57.179Z,15.38
2022-07-27T02:58:24.458Z,15.33
2022-07-27T03:00:57.888Z,15.29
2022-07-27T03:03:32.937Z,15.17
2022-07-27T03:06:05.585Z,15.17
2022-07-27T03:08:32.013Z,15.15
2022-07-27T03:10:58.959Z,15.10
2022-07-27T03:13:26.547Z,14.99
2022-07-27T03:15:53.126Z,14.93
2022-07-27T03:18:19.617Z,14.86
2022-07-27T03:20:46.131Z,14.84
2022-07-27T03:23:12.954Z,14.82
2022-07-27T03:25:39.883Z,14.84
2022-07-27T03:28:06.640Z,14.83
2022-07-27T03:30:33.189Z,14.84
2022-07-27T03:33:00.185Z,14.88
2022-07-27T03:35:26.632Z,14.90
2022-07-27T03:37:53.422Z,14.87
2022-07-27T03:40:19.991Z,14.90
2022-07-27T03:42:46.519Z,14.90
2022-07-27T03:45:13.145Z,14.82
2022-07-27T03:47:39.653Z,14.78
2022-07-27T03:50:06.917Z,14.78
2022-07-27T03:52:33.665Z,14.77
2022-07-27T03:55:00.473Z,14.75
2022-07-27T03:57:27.221Z,14.73
2022-07-27T03:59:55.196Z,14.67
2022-07-27T04:02:21.721Z,14.62
2022-07-27T04:04:48.224Z,14.61
2022-07-27T04:07:14.695Z,14.63
2022-07-27T04:09:41.550Z,14.63
2022-07-27T04:12:10.570Z,14.62
2022-07-27T04:14:37.065Z,14.65
2022-07-27T04:17:03.704Z,14.70
2022-07-27T04:19:30.553Z,14.74
2022-07-27T04:21:57.409Z,14.70
2022-07-27T04:24:23.858Z,14.73
2022-07-27T04:26:50.655Z,14.77
2022-07-27T04:29:20.381Z,14.83
2022-07-27T04:31:47.709Z,14.90
2022-07-27T04:34:14.358Z,14.99
2022-07-27T04:36:40.844Z,15.12
2022-07-27T04:39:08.037Z,15.14
2022-07-27T04:41:34.786Z,15.23
2022-07-27T04:44:01.436Z,15.26
2022-07-27T04:46:29.641Z,15.33
2022-07-27T04:48:56.582Z,15.37
2022-07-27T04:51:23.109Z,15.51
2022-07-27T04:53:53.597Z,15.58
2022-07-27T04:56:25.446Z,15.71
2022-07-27T04:58:52.321Z,15.74
2022-07-27T05:01:18.845Z,15.75
2022-07-27T05:03:45.477Z,15.87
2022-07-27T05:06:12.018Z,15.87
2022-07-27T05:08:38.749Z,15.99
2022-07-27T05:11:05.261Z,16.15
2022-07-27T05:13:31.707Z,16.18
2022-07-27T05:15:58.538Z,16.24
2022-07-27T05:18:26.009Z,16.29
2022-07-27T05:20:52.522Z,16.23
2022-07-27T05:23:19.290Z,16.14
2022-07-27T05:25:45.749Z,16.15
2022-07-27T05:28:12.980Z,16.18
2022-07-27T05:30:39.500Z,16.21
2022-07-27T05:33:06.007Z,16.27
2022-07-27T05:35:32.556Z,16.44
2022-07-27T05:37:59.753Z,16.54
2022-07-27T05:40:27.551Z,16.68
2022-07-27T05:42:54.184Z,16.48
2022-07-27T05:45:20.811Z,16.39
2022-07-27T05:47:47.299Z,16.42
2022-07-27T05:50:15.621Z,16.39
2022-07-27T05:52:43.466Z,16.47
2022-07-27T05:55:10.673Z,16.47
2022-07-27T05:57:38.160Z,16.59
2022-07-27T06:00:06.634Z,16.73
2022-07-27T06:02:33.122Z,16.71
2022-07-27T06:04:59.808Z,16.58
2022-07-27T06:07:44.922Z,16.56
2022-07-27T06:10:17.081Z,16.60
2022-07-27T06:12:45.643Z,16.77
2022-07-27T06:15:13.560Z,16.77
2022-07-27T06:17:41.136Z,16.75
2022-07-27T06:20:08.901Z,16.76
2022-07-27T06:22:57.725Z,16.77
2022-07-27T06:25:34.449Z,16.69
2022-07-27T06:28:03.592Z,16.73
2022-07-27T06:30:30.082Z,16.80
2022-07-27T06:32:58.387Z,16.84
2022-07-27T06:35:26.201Z,16.63
2022-07-27T06:37:52.977Z,16.78
2022-07-27T06:40:20.346Z,16.89
2022-07-27T06:42:47.756Z,17.00
2022-07-27T06:45:14.426Z,16.95
2022-07-27T06:47:49.304Z,17.07
2022-07-27T06:50:20.455Z,17.14
2022-07-27T06:52:47.930Z,17.35
2022-07-27T06:55:14.466Z,17.51
2022-07-27T06:57:42.702Z,17.60
2022-07-27T07:00:09.876Z,17.64
2022-07-27T07:02:36.391Z,17.61
2022-07-27T07:05:02.907Z,17.34
2022-07-27T07:07:29.883Z,17.33
2022-07-27T07:09:56.338Z,17.37
2022-07-27T07:12:22.863Z,17.31
2022-07-27T07:14:49.343Z,17.40
2022-07-27T07:17:15.833Z,17.49
2022-07-27T07:19:43.099Z,17.43
2022-07-27T07:22:09.908Z,17.40
2022-07-27T07:24:36.474Z,17.44
2022-07-27T07:27:03.382Z,17.61
2022-07-27T07:29:29.895Z,17.70
2022-07-27T07:31:56.499Z,17.82
2022-07-27T07:34:23.066Z,17.92
2022-07-27T07:36:49.513Z,17.89
2022-07-27T07:39:17.194Z,18.00
2022-07-27T07:41:43.761Z,17.89
2022-07-27T07:44:10.253Z,17.87
2022-07-27T07:46:37.106Z,17.94
2022-07-27T07:49:05.586Z,18.07
2022-07-27T07:51:32.183Z,18.24
2022-07-27T07:53:59.073Z,18.25
2022-07-27T07:56:25.839Z,18.14
2022-07-27T07:58:52.307Z,17.99
2022-07-27T08:01:18.855Z,17.88
2022-07-27T08:03:50.589Z,17.70
2022-07-27T08:06:17.950Z,17.52
2022-07-27T08:08:44.610Z,17.43
2022-07-27T08:11:11.183Z,17.39
2022-07-27T08:13:37.712Z,17.40
2022-07-27T08:16:06.889Z,17.35
2022-07-27T08:18:33.440Z,17.37
2022-07-27T08:20:59.957Z,17.50
2022-07-27T08:23:27.356Z,17.56
2022-07-27T08:25:54.144Z,17.67
2022-07-27T08:28:20.734Z,17.71
2022-07-27T08:30:47.957Z,17.82
2022-07-27T08:33:16.585Z,17.86
2022-07-27T08:35:43.190Z,17.85
2022-07-27T08:38:09.936Z,17.80
2022-07-27T08:40:41.107Z,17.94
2022-07-27T08:43:10.856Z,18.33
2022-07-27T08:45:38.097Z,18.64
2022-07-27T08:48:05.052Z,18.56
2022-07-27T08:50:33.703Z,18.50
2022-07-27T08:53:06.346Z,18.22
2022-07-27T08:55:38.427Z,17.96
2022-07-27T08:58:06.493Z,17.90
2022-07-27T09:00:34.841Z,17.91
2022-07-27T09:03:02.952Z,17.95
2022-07-27T09:05:36.979Z,18.08
2022-07-27T09:08:12.662Z,18.24
2022-07-27T09:10:39.248Z,18.30
2022-07-27T09:13:26.669Z,18.36
2022-07-27T09:16:19.232Z,18.46
2022-07-27T09:18:48.508Z,18.17
2022-07-27T09:21:23.340Z,18.18
2022-07-27T09:23:50.065Z,18.23
2022-07-27T09:26:32.955Z,18.47
2022-07-27T09:29:08.105Z,18.65
2022-07-27T09:32:00.844Z,18.54
2022-07-27T09:34:33.399Z,18.50
2022-07-27T09:37:00.288Z,18.61
2022-07-27T09:39:31.017Z,18.72
2022-07-27T09:42:01.440Z,18.92
2022-07-27T09:44:44.628Z,19.04
2022-07-27T09:47:27.499Z,19.08
2022-07-27T09:49:57.812Z,19.10
2022-07-27T09:52:30.193Z,18.99
2022-07-27T09:55:06.734Z,18.74
2022-07-27T09:57:53.532Z,18.64
2022-07-27T10:00:20.813Z,18.63
2022-07-27T10:02:48.317Z,18.69
2022-07-27T10:05:18.227Z,18.79
2022-07-27T10:07:45.077Z,18.85
2022-07-27T10:10:14.759Z,19.02
2022-07-27T10:12:46.859Z,19.07
2022-07-27T10:15:16.602Z,19.17
2022-07-27T10:17:45.089Z,19.26
2022-07-27T10:20:16.342Z,19.30
2022-07-27T10:22:53.093Z,19.44
2022-07-27T10:25:21.441Z,19.43
2022-07-27T10:28:07.524Z,19.46
2022-07-27T10:30:34.537Z,19.18
2022-07-27T10:33:12.531Z,19.17
2022-07-27T10:35:39.078Z,19.14
2022-07-27T10:38:16.639Z,19.23
2022-07-27T10:40:44.255Z,19.42
2022-07-27T10:43:21.947Z,19.44
2022-07-27T10:46:01.476Z,19.43
2022-07-27T10:48:48.087Z,19.42
2022-07-27T10:51:17.201Z,19.55
2022-07-27T10:56:46.103Z,19.85
2022-07-27T10:59:12.760Z,20.01
2022-07-27T11:01:59.568Z,20.12
2022-07-27T11:04:26.350Z,20.12
2022-07-27T11:10:03.616Z,20.00
2022-07-27T11:12:30.975Z,20.20
2022-07-27T11:14:58.644Z,20.20
2022-07-27T11:20:23.359Z,20.16
2022-07-27T11:25:36.417Z,20.30
2022-07-27T11:28:09.538Z,20.30
2022-07-27T11:30:36.240Z,20.39
2022-07-27T11:33:04.994Z,20.38
2022-07-27T11:35:31.545Z,20.40
2022-07-27T11:38:00.467Z,20.42
2022-07-27T11:40:56.268Z,20.28
2022-07-27T11:43:14.013Z,20.19
2022-07-27T11:45:42.949Z,20.37
2022-07-27T11:48:17.819Z,20.53
2022-07-27T11:51:00.658Z,20.40
2022-07-27T11:53:29.141Z,20.37
2022-07-27T11:55:56.417Z,20.21
2022-07-27T11:58:22.899Z,20.14
2022-07-27T12:00:49.511Z,20.06
2022-07-27T12:03:32.051Z,19.83
2022-07-27T12:06:13.978Z,19.89
2022-07-27T12:08:41.192Z,19.87
2022-07-27T12:11:07.875Z,19.86
2022-07-27T12:13:38.089Z,19.86
2022-07-27T12:16:04.878Z,19.97
2022-07-27T12:18:57.507Z,20.22
2022-07-27T12:21:23.995Z,20.44
2022-07-27T12:23:59.111Z,20.35
2022-07-27T12:26:25.725Z,20.22
2022-07-27T12:29:06.573Z,20.16
2022-07-27T12:31:33.971Z,20.26
2022-07-27T12:34:06.254Z,20.35
2022-07-27T12:36:33.576Z,20.55
2022-07-27T12:39:00.315Z,20.55
2022-07-27T12:41:37.706Z,20.63
2022-07-27T12:44:18.166Z,20.67
2022-07-27T12:47:16.946Z,20.88
2022-07-27T12:49:46.620Z,21.13
2022-07-27T12:52:13.497Z,21.27
2022-07-27T12:54:39.998Z,21.25
2022-07-27T12:57:06.540Z,21.26
2022-07-27T12:59:33.306Z,21.22
2022-07-27T13:02:00.501Z,21.04
2022-07-27T13:04:27.311Z,20.94
2022-07-27T13:06:54.193Z,20.79
2022-07-27T13:09:20.747Z,20.67
2022-07-27T13:11:48.428Z,20.56
2022-07-27T13:14:15.452Z,20.45
2022-07-27T13:16:42.290Z,20.27
2022-07-27T13:19:09.003Z,20.29
2022-07-27T13:21:35.583Z,20.38
2022-07-27T13:24:02.892Z,20.41
2022-07-27T13:26:32.430Z,20.41
2022-07-27T13:28:59.007Z,20.53
2022-07-27T13:31:28.382Z,20.64
2022-07-27T13:33:54.921Z,20.56
2022-07-27T13:36:21.786Z,20.53
2022-07-27T13:38:48.729Z,20.48
2022-07-27T13:41:15.459Z,20.58
2022-07-27T13:43:41.994Z,20.61
2022-07-27T13:46:10.420Z,20.60
2022-07-27T13:48:37.236Z,20.61
2022-07-27T13:51:03.930Z,20.62
2022-07-27T13:53:30.496Z,20.63
2022-07-27T13:55:57.343Z,20.69
2022-07-27T13:58:24.315Z,20.70
2022-07-27T14:00:51.813Z,20.63
2022-07-27T14:03:18.596Z,20.72
2022-07-27T14:05:49.480Z,20.76
2022-07-27T14:08:18.059Z,20.77
2022-07-27T14:10:45.279Z,21.27
2022-07-27T14:13:13.212Z,21.52
2022-07-27T14:15:55.659Z,21.32
2022-07-27T14:18:25.722Z,21.08
2022-07-27T14:20:52.902Z,20.98
2022-07-27T14:23:19.674Z,21.02
2022-07-27T14:25:46.476Z,21.09
2022-07-27T14:28:13.130Z,20.91
2022-07-27T14:30:39.730Z,20.93
2022-07-27T14:33:06.353Z,21.09
2022-07-27T14:35:37.033Z,21.84
2022-07-27T14:38:07.158Z,22.78
2022-07-27T14:40:33.698Z,23.26
2022-07-27T14:43:07.023Z,23.37
2022-07-27T14:45:44.511Z,23.73
2022-07-27T14:48:14.877Z,23.96
2022-07-27T14:50:44.913Z,24.24
2022-07-27T14:53:11.773Z,24.06
2022-07-27T14:55:42.306Z,23.21
2022-07-27T14:58:10.942Z,22.57
2022-07-27T15:00:39.166Z,22.23
2022-07-27T15:03:07.187Z,21.83
2022-07-27T15:05:50.313Z,21.49
2022-07-27T15:08:20.015Z,21.34
2022-07-27T15:10:47.173Z,21.28
2022-07-27T15:13:14.655Z,21.21
2022-07-27T15:15:41.358Z,21.08
2022-07-27T15:18:08.958Z,20.99
2022-07-27T15:20:35.866Z,20.96
2022-07-27T15:23:06.429Z,20.87
2022-07-27T15:25:33.880Z,20.93
2022-07-27T15:28:00.336Z,20.94
2022-07-27T15:30:27.406Z,20.94
2022-07-27T15:32:53.946Z,20.98
2022-07-27T15:35:20.483Z,20.99
2022-07-27T15:37:54.810Z,20.96
2022-07-27T15:40:37.590Z,20.95
2022-07-27T15:43:11.403Z,20.95
2022-07-27T15:45:40.220Z,20.95
2022-07-27T15:48:09.346Z,20.94
2022-07-27T15:50:40.498Z,20.92
2022-07-27T15:53:07.515Z,20.86
2022-07-27T15:55:35.385Z,20.73
2022-07-27T15:58:01.812Z,20.74
2022-07-27T16:00:28.902Z,20.70
2022-07-27T16:02:55.971Z,20.76
2022-07-27T16:05:23.857Z,20.70
2022-07-27T16:07:54.264Z,20.66
2022-07-27T16:10:30.880Z,20.57
2022-07-27T16:12:57.787Z,20.56
2022-07-27T16:15:44.264Z,20.61
2022-07-27T16:18:11.126Z,20.64
2022-07-27T16:20:38.020Z,20.57
2022-07-27T16:23:17.642Z,20.57
2022-07-27T16:26:03.182Z,20.60
2022-07-27T16:28:30.528Z,20.65
2022-07-27T16:30:57.853Z,20.68
2022-07-27T16:33:24.636Z,20.74
2022-07-27T16:35:51.125Z,20.78
2022-07-27T16:38:17.781Z,20.81
2022-07-27T16:40:44.363Z,20.84
2022-07-27T16:43:10.974Z,20.90
2022-07-27T16:45:42.606Z,20.94
2022-07-27T16:48:15.501Z,20.99
2022-07-27T16:50:42.035Z,21.06
2022-07-27T16:53:08.558Z,21.11
2022-07-27T16:55:35.079Z,21.13
2022-07-27T16:58:01.530Z,21.16
2022-07-27T17:00:28.275Z,21.19
2022-07-27T17:02:55.022Z,21.19
2022-07-27T17:05:21.828Z,21.17
2022-07-27T17:07:51.059Z,21.17
2022-07-27T17:10:27.078Z,21.25
2022-07-27T17:12:54.348Z,21.23
2022-07-27T17:15:22.459Z,21.27
2022-07-27T17:17:49.055Z,21.29
2022-07-27T17:20:16.160Z,21.28
2022-07-27T17:22:54.657Z,21.18
2022-07-27T17:25:23.240Z,21.21
2022-07-27T17:27:49.910Z,21.14
2022-07-27T17:30:16.505Z,21.00
2022-07-27T17:32:43.272Z,20.90
2022-07-27T17:35:10.567Z,20.82
2022-07-27T17:38:03.363Z,20.80
2022-07-27T17:40:24.388Z,20.79
2022-07-27T17:42:51.978Z,20.76
2022-07-27T17:45:18.451Z,20.73
2022-07-27T17:47:44.976Z,20.72
2022-07-27T17:50:11.458Z,20.75
2022-07-27T17:52:38.631Z,20.68
2022-07-27T17:55:05.983Z,20.64
2022-07-27T17:57:33.720Z,20.57
2022-07-27T18:00:00.263Z,20.51
2022-07-27T18:02:27.396Z,20.48
2022-07-27T18:04:53.892Z,20.46
2022-07-27T18:07:20.367Z,20.45
2022-07-27T18:09:46.834Z,20.39
2022-07-27T18:12:13.238Z,20.35
2022-07-27T18:14:59.701Z,20.32
2022-07-27T18:17:26.376Z,20.33
2022-07-27T18:19:52.863Z,20.27
2022-07-27T18:22:19.443Z,20.28
2022-07-27T18:24:45.944Z,20.19
2022-07-27T18:27:12.460Z,20.15
2022-07-27T18:29:38.900Z,20.15
2022-07-27T18:32:05.459Z,20.06
2022-07-27T18:34:32.491Z,20.05
2022-07-27T18:36:58.953Z,20.07
2022-07-27T18:39:33.702Z,20.06
2022-07-27T18:42:03.667Z,20.01
2022-07-27T18:44:35.367Z,19.98
2022-07-27T18:47:05.466Z,19.96
2022-07-27T18:49:32.132Z,19.92
2022-07-27T18:51:58.886Z,19.83
2022-07-27T18:54:25.578Z,19.82
2022-07-27T18:56:52.036Z,19.78
2022-07-27T18:59:18.499Z,19.74
2022-07-27T19:01:45.358Z,19.73
2022-07-27T19:04:12.947Z,19.64
2022-07-27T19:06:42.783Z,19.63
2022-07-27T19:09:10.918Z,19.61
2022-07-27T19:11:37.902Z,19.56
2022-07-27T19:14:06.464Z,19.47
2022-07-27T19:16:34.343Z,19.41
2022-07-27T19:19:03.757Z,19.40
2022-07-27T19:21:30.848Z,19.33
2022-07-27T19:23:57.388Z,19.27
2022-07-27T19:26:24.028Z,19.20
2022-07-27T19:28:50.693Z,19.14
2022-07-27T19:31:23.425Z,19.10
2022-07-27T19:33:52.233Z,19.02
2022-07-27T19:36:19.752Z,18.99
2022-07-27T19:38:49.207Z,18.98
2022-07-27T19:41:15.914Z,18.95
2022-07-27T19:43:42.363Z,18.90
2022-07-27T19:46:09.073Z,18.85
2022-07-27T19:48:35.738Z,18.80
2022-07-27T19:51:06.812Z,18.76
2022-07-27T19:53:35.617Z,18.71
2022-07-27T19:56:02.508Z,18.66
2022-07-27T19:58:28.951Z,18.60
2022-07-27T20:00:55.845Z,18.52
2022-07-27T20:03:22.904Z,18.49
2022-07-27T20:05:50.851Z,18.46
2022-07-27T20:08:17.747Z,18.43
2022-07-27T20:10:44.177Z,18.43
2022-07-27T20:13:10.895Z,18.43
2022-07-27T20:15:37.526Z,18.35
2022-07-27T20:18:04.190Z,18.33
2022-07-27T20:20:30.815Z,18.27
2022-07-27T20:22:58.343Z,18.24
2022-07-27T20:25:25.015Z,18.22
2022-07-27T20:27:54.434Z,18.21
2022-07-27T20:30:21.261Z,18.19
2022-07-27T20:32:49.917Z,18.16
2022-07-27T20:35:16.973Z,18.14
2022-07-27T20:37:45.417Z,18.10
2022-07-27T20:40:12.919Z,18.07
2022-07-27T20:42:48.389Z,18.05
2022-07-27T20:45:14.987Z,18.00
2022-07-27T20:47:42.556Z,17.98
2022-07-27T20:50:11.244Z,17.98
2022-07-27T20:52:38.739Z,17.94
2022-07-27T20:55:07.566Z,17.88
2022-07-27T20:57:34.524Z,17.83
2022-07-27T21:00:01.001Z,17.83
2022-07-27T21:02:27.635Z,17.75
2022-07-27T21:04:54.933Z,17.73
2022-07-27T21:07:21.726Z,17.70
2022-07-27T21:09:48.680Z,17.67
2022-07-27T21:12:15.340Z,17.66
2022-07-27T21:14:45.633Z,17.59
2022-07-27T21:17:12.126Z,17.55
2022-07-27T21:19:38.627Z,17.59
2022-07-27T21:22:05.113Z,17.51
2022-07-27T21:24:31.655Z,17.51
2022-07-27T21:27:03.910Z,17.47
2022-07-27T21:29:31.989Z,17.43
2022-07-27T21:31:58.905Z,17.41
2022-07-27T21:34:25.401Z,17.43
2022-07-27T21:36:52.229Z,17.35
2022-07-27T21:39:21.767Z,17.38
2022-07-27T21:41:48.221Z,17.35
2022-07-27T21:44:16.570Z,17.31
2022-07-27T21:46:43.407Z,17.25
2022-07-27T21:49:32.401Z,17.23
2022-07-27T21:52:01.158Z,17.22
2022-07-27T21:54:27.702Z,17.18
2022-07-27T21:56:54.133Z,17.16
2022-07-27T21:59:20.575Z,17.18
2022-07-27T22:01:47.801Z,17.17
2022-07-27T22:04:16.044Z,17.15
2022-07-27T22:06:43.806Z,17.15
2022-07-27T22:09:10.349Z,17.15
2022-07-27T22:11:36.837Z,17.10
2022-07-27T22:14:03.721Z,17.07
2022-07-27T22:16:30.284Z,17.06
2022-07-27T22:18:57.236Z,17.02
2022-07-27T22:21:23.843Z,17.01
2022-07-27T22:23:51.128Z,16.99
2022-07-27T22:26:17.577Z,16.95
2022-07-27T22:28:44.833Z,16.94
2022-07-27T22:31:21.203Z,16.96
2022-07-27T22:33:49.486Z,16.93
2022-07-27T22:36:15.987Z,16.89
2022-07-27T22:38:42.616Z,16.89
2022-07-27T22:41:09.159Z,16.82
2022-07-27T22:43:35.894Z,16.83
2022-07-27T22:46:04.013Z,16.79
2022-07-27T22:48:30.716Z,16.77
2022-07-27T22:50:57.728Z,16.78
2022-07-27T22:53:24.288Z,16.70
2022-07-27T22:55:51.011Z,16.63
2022-07-27T22:58:17.466Z,16.62
2022-07-27T23:00:44.236Z,16.59
2022-07-27T23:03:10.855Z,16.56
2022-07-27T23:05:37.340Z,16.56
2022-07-27T23:08:03.965Z,16.54
2022-07-27T23:10:48.611Z,16.49
2022-07-27T23:13:17.347Z,16.49
2022-07-27T23:15:45.250Z,16.46
2022-07-27T23:18:12.847Z,16.44
2022-07-27T23:20:39.617Z,16.46
2022-07-27T23:23:15.402Z,16.50
2022-07-27T23:25:43.617Z,16.53
2022-07-27T23:28:10.227Z,16.48
2022-07-27T23:30:37.479Z,16.41
2022-07-27T23:33:03.958Z,16.38
2022-07-27T23:35:30.588Z,16.37
2022-07-27T23:37:57.095Z,16.32
2022-07-27T23:40:24.160Z,16.28
2022-07-27T23:42:50.649Z,16.30
2022-07-27T23:45:17.399Z,16.22
2022-07-27T23:47:43.964Z,16.22
2022-07-27T23:50:11.235Z,16.24
2022-07-27T23:52:38.213Z,16.29
2022-07-27T23:55:05.287Z,16.17
2022-07-27T23:57:32.414Z,16.18
2022-07-27T23:59:58.895Z,16.19
